Wintersville, Ohio
Current Conditions -  °F | °C
As of 4:53 PM on Thursday 27 Nov 2014 (Local Time) from KHLG Reporting Station
Haze Haze  
Wind Chill: -6°   Ceiling: 5500
Heat Index: -1°   Visibility: 5mi
Dew Point: -4°   Wind: 10mph
Humidity: 82%   Direction: 260°W
Pressure: 30.16"   Gusts: NA
Location:  40.3638°N, 80.7135°W
Report Text: KHLG 272153Z 26009KT 5SM HZ SCT013 BKN055 OVC070 M01/M04 A3016 RMK AO2 SNE31 SLP230 P0000 T10111039
Loading
Personal Weather Stations






























Interactive Weather Map New forecast layout! Learn more

10-Day Weather Forecast

Advertisements
Track Severe Weather on mobile